Time;durP1;ratioP1;P1;durP2;ratioP2;P2;SDS_P1;SDS_P2;PMS_P1;PMS_P2;Temp;Humidity;BMP_temperature;BMP_pressure;BME280_temperature;BME280_humidity;BME280_pressure;Samples;Min_cycle;Max_cycle;Signal;HPM_P1;HPM_P2
2022/09/08 00:00:09;;;;;;;5.40;3.60;;;17.50;99.90;;;;;;4951036;29;20546;-88
2022/09/08 00:02:38;;;;;;;4.90;3.47;;;17.60;99.90;;;;;;4962299;23;20455;-91
2022/09/08 00:05:05;;;;;;;5.40;4.33;;;;;;;;;;4952510;29;20835;-84
2022/09/08 00:07:35;;;;;;;4.20;3.80;;;;;;;;;;4956266;29;20451;-88
2022/09/08 00:10:02;;;;;;;5.80;3.80;;;;;;;;;;4956149;28;20455;-86
2022/09/08 00:12:30;;;;;;;3.90;3.60;;;;;;;;;;4952438;29;20850;-87
2022/09/08 00:14:59;;;;;;;5.07;4.10;;;17.60;99.90;;;;;;4954082;29;20465;-85
2022/09/08 00:17:28;;;;;;;7.70;4.20;;;17.60;99.90;;;;;;4948877;29;20463;-84
2022/09/08 00:19:56;;;;;;;4.63;3.97;;;17.60;99.90;;;;;;4950054;29;20454;-85
2022/09/08 00:22:24;;;;;;;6.50;4.17;;;;;;;;;;4948542;29;20454;-88
2022/09/08 00:24:51;;;;;;;6.77;4.67;;;;;;;;;;4952178;29;20882;-87
2022/09/08 00:27:18;;;;;;;4.97;4.53;;;;;;;;;;4954985;29;20442;-87
2022/09/08 00:29:45;;;;;;;4.40;4.00;;;;;;;;;;4951514;29;20881;-86
2022/09/08 00:32:12;;;;;;;4.70;3.97;;;;;;;;;;4952561;29;20482;-86
2022/09/08 00:34:39;;;;;;;4.30;3.90;;;;;;;;;;4955087;29;20455;-88
2022/09/08 00:37:07;;;;;;;4.53;3.80;;;17.50;99.90;;;;;;4951207;29;20455;-85
2022/09/08 00:39:34;;;;;;;5.53;4.77;;;;;;;;;;4951245;29;20910;-89
2022/09/08 00:42:01;;;;;;;3.97;3.63;;;;;;;;;;4954766;28;20471;-86
2022/09/08 00:44:41;;;;;;;5.47;3.97;;;17.50;99.90;;;;;;4954807;29;20455;-88
2022/09/08 00:47:15;;;;;;;4.70;3.87;;;17.50;99.90;;;;;;4957680;29;20447;-91
2022/09/08 00:49:44;;;;;;;7.37;4.40;;;17.40;99.90;;;;;;4955829;29;20458;-89
2022/09/08 00:52:12;;;;;;;10.43;4.10;;;17.40;99.90;;;;;;4954745;29;20819;-88
2022/09/08 00:54:40;;;;;;;4.83;3.60;;;;;;;;;;4952023;29;20530;-90
2022/09/08 00:57:07;;;;;;;5.00;4.27;;;;;;;;;;4955072;29;20966;-88
2022/09/08 00:59:36;;;;;;;4.10;3.70;;;17.30;99.90;;;;;;4955145;29;20454;-86
2022/09/08 01:02:25;;;;;;;5.50;4.23;;;17.20;99.90;;;;;;4953766;29;20455;-88
2022/09/08 01:04:56;;;;;;;4.30;3.90;;;17.20;99.90;;;;;;4955210;29;20490;-89
2022/09/08 01:13:15;;;;;;;5.70;3.83;;;;;;;;;;4954894;29;20518;-89
2022/09/08 01:15:42;;;;;;;6.43;3.70;;;;;;;;;;4953869;29;20458;-89
2022/09/08 01:18:09;;;;;;;4.30;3.90;;;;;;;;;;4954790;29;20458;-89
2022/09/08 01:20:47;;;;;;;6.20;4.40;;;17.30;99.90;;;;;;4954845;28;20451;-89
2022/09/08 01:23:53;;;;;;;4.37;3.97;;;17.40;99.90;;;;;;4952067;29;20844;-88
2022/09/08 01:26:39;;;;;;;4.20;3.90;;;17.50;99.90;;;;;;4958301;29;20458;-85
2022/09/08 01:29:09;;;;;;;5.20;3.80;;;17.40;99.90;;;;;;4956590;29;20446;-87
2022/09/08 01:31:38;;;;;;;5.60;4.30;;;17.40;99.90;;;;;;4957421;29;20458;-86
2022/09/08 01:34:05;;;;;;;5.10;3.90;;;;;;;;;;4955032;29;21025;-88
2022/09/08 01:36:33;;;;;;;7.03;3.63;;;;;;;;;;4959251;29;20455;-88
2022/09/08 01:39:00;;;;;;;5.93;3.60;;;;;;;;;;4960014;29;20450;-88
2022/09/08 01:41:27;;;;;;;4.47;3.53;;;;;;;;;;4962216;28;20471;-88
2022/09/08 01:43:54;;;;;;;7.50;4.73;;;;;;;;;;4971701;29;20459;-83
2022/09/08 01:46:22;;;;;;;3.77;3.47;;;17.20;99.90;;;;;;4977799;29;20451;-87
2022/09/08 01:48:49;;;;;;;6.30;4.10;;;;;;;;;;4960691;29;20459;-87
2022/09/08 01:51:16;;;;;;;5.30;3.00;;;;;;;;;;4959398;29;20541;-92
2022/09/08 01:53:44;;;;;;;3.20;2.90;;;;;;;;;;4959107;29;20494;-91
2022/09/08 01:56:11;;;;;;;3.07;2.77;;;;;;;;;;4959960;29;20447;-91
2022/09/08 01:58:38;;;;;;;3.80;3.37;;;;;;;;;;4960467;29;20439;-86
2022/09/08 02:01:05;;;;;;;3.10;2.90;;;;;;;;;;4958570;29;20459;-94
2022/09/08 02:03:34;;;;;;;3.17;2.73;;;17.20;99.90;;;;;;4958016;29;20848;-93
2022/09/08 02:06:02;;;;;;;2.83;2.53;;;17.10;99.90;;;;;;4959035;29;20498;-87
2022/09/08 02:08:29;;;;;;;3.50;2.50;;;;;;;;;;4959248;29;20479;-88
2022/09/08 02:11:00;;;;;;;3.20;2.43;;;17.00;99.90;;;;;;4958087;29;20463;-80
2022/09/08 02:13:27;;;;;;;3.27;2.40;;;;;;;;;;4957559;29;21009;-89
2022/09/08 02:15:59;;;;;;;2.37;2.17;;;16.90;99.90;;;;;;4956170;29;20465;-91
2022/09/08 02:18:26;;;;;;;3.70;2.33;;;;;;;;;;4957731;29;20452;-88
2022/09/08 02:21:06;;;;;;;2.27;1.80;;;16.80;99.90;;;;;;4953467;29;20451;-84
2022/09/08 02:23:34;;;;;;;2.90;2.00;;;16.90;99.90;;;;;;4957205;29;20458;-89
2022/09/08 02:26:01;;;;;;;2.77;2.20;;;;;;;;;;4952295;29;20439;-88
2022/09/08 02:28:29;;;;;;;2.80;2.10;;;;;;;;;;4957507;29;20458;-81
2022/09/08 02:31:01;;;;;;;1.73;1.40;;;16.90;99.90;;;;;;4956232;29;20490;-91
2022/09/08 02:33:29;;;;;;;2.73;1.90;;;16.60;99.90;;;;;;4957048;28;20522;-85
2022/09/08 02:35:56;;;;;;;3.00;1.50;;;;;;;;;;4957311;29;20542;-83
2022/09/08 02:38:26;;;;;;;2.13;1.50;;;16.60;99.90;;;;;;4957311;29;20947;-91
2022/09/08 02:40:53;;;;;;;1.87;1.77;;;;;;;;;;4954486;28;20490;-89
2022/09/08 02:43:21;;;;;;;1.83;1.70;;;;;;;;;;4957641;29;20466;-85
2022/09/08 02:45:49;;;;;;;4.83;2.30;;;;;;;;;;4956234;29;20443;-87
2022/09/08 02:48:16;;;;;;;2.00;1.80;;;;;;;;;;4956826;29;20447;-88
2022/09/08 02:50:43;;;;;;;2.90;1.70;;;;;;;;;;4957199;29;20458;-88
2022/09/08 02:53:11;;;;;;;2.67;1.47;;;;;;;;;;4956909;29;20486;-88
2022/09/08 02:55:40;;;;;;;1.70;1.53;;;;;;;;;;4956879;29;20462;-85
2022/09/08 02:58:07;;;;;;;1.70;1.60;;;;;;;;;;4957413;29;20455;-90
2022/09/08 03:00:35;;;;;;;1.47;1.20;;;;;;;;;;4955952;29;20456;-88
2022/09/08 03:03:02;;;;;;;2.60;2.40;;;;;;;;;;4956658;29;20480;-87
2022/09/08 03:05:29;;;;;;;3.43;1.47;;;;;;;;;;4957467;29;20459;-89
2022/09/08 03:07:57;;;;;;;2.37;1.33;;;;;;;;;;4957059;29;20459;-89
2022/09/08 03:10:24;;;;;;;1.00;0.90;;;;;;;;;;4956313;29;20460;-85
2022/09/08 03:12:54;;;;;;;3.50;1.30;;;16.30;99.90;;;;;;4956554;29;20596;-93
2022/09/08 03:15:23;;;;;;;1.83;1.20;;;16.30;99.90;;;;;;4955835;29;20452;-86
2022/09/08 03:17:50;;;;;;;1.63;1.23;;;;;;;;;;4956524;29;20467;-89
2022/09/08 03:20:17;;;;;;;2.57;1.30;;;;;;;;;;4956822;29;20946;-83
2022/09/08 03:22:45;;;;;;;1.20;1.10;;;;;;;;;;4956854;29;20451;-86
2022/09/08 03:25:12;;;;;;;1.23;1.13;;;;;;;;;;4957043;29;20808;-91
2022/09/08 03:27:39;;;;;;;2.10;1.10;;;;;;;;;;4957027;29;20502;-81
2022/09/08 03:30:10;;;;;;;2.07;1.13;;;16.20;99.90;;;;;;4955182;29;20455;-84
2022/09/08 03:32:38;;;;;;;1.53;0.90;;;16.20;99.90;;;;;;4955997;29;20946;-91
2022/09/08 03:35:07;;;;;;;2.63;1.13;;;16.20;99.90;;;;;;4947701;29;20503;-83
2022/09/08 03:37:34;;;;;;;1.13;0.87;;;;;;;;;;4954597;29;20465;-84
2022/09/08 03:40:03;;;;;;;1.10;1.00;;;;;;;;;;4956304;28;20479;-87
2022/09/08 03:42:33;;;;;;;1.00;0.90;;;16.20;99.90;;;;;;4955672;29;20487;-90
2022/09/08 03:45:00;;;;;;;1.27;1.17;;;;;;;;;;4949157;28;20474;-90
2022/09/08 03:47:29;;;;;;;1.47;1.13;;;16.10;99.90;;;;;;4953288;29;20506;-82
2022/09/08 03:49:56;;;;;;;1.70;1.30;;;;;;;;;;4953952;29;20543;-85
2022/09/08 03:52:24;;;;;;;2.50;1.20;;;;;;;;;;4955876;29;20454;-86
2022/09/08 03:54:51;;;;;;;2.40;0.70;;;;;;;;;;4952831;29;20483;-81
2022/09/08 03:57:22;;;;;;;0.80;0.70;;;16.00;99.90;;;;;;4958042;29;20455;-82
2022/09/08 03:59:49;;;;;;;1.60;1.30;;;;;;;;;;4956024;29;20818;-86
2022/09/08 04:02:17;;;;;;;1.10;0.97;;;;;;;;;;4955937;29;20470;-80
2022/09/08 04:04:49;;;;;;;1.37;1.27;;;16.00;99.90;;;;;;4956938;28;20538;-86
2022/09/08 04:07:16;;;;;;;1.00;0.93;;;15.90;99.90;;;;;;4955424;29;20931;-82
2022/09/08 04:09:43;;;;;;;1.37;0.90;;;;;;;;;;4955725;29;20455;-81
2022/09/08 04:12:11;;;;;;;2.30;1.03;;;15.90;99.90;;;;;;4955071;29;20451;-82
2022/09/08 04:14:38;;;;;;;1.00;0.90;;;;;;;;;;4955119;29;20498;-85
2022/09/08 04:17:05;;;;;;;2.03;1.07;;;;;;;;;;4954061;29;20457;-85
2022/09/08 04:19:32;;;;;;;1.00;0.80;;;;;;;;;;4955389;29;20466;-89
2022/09/08 04:22:01;;;;;;;1.33;0.90;;;;;;;;;;4955261;29;20460;-81
2022/09/08 04:24:28;;;;;;;1.50;0.83;;;;;;;;;;4955192;29;20511;-84
2022/09/08 04:26:55;;;;;;;0.90;0.77;;;;;;;;;;4955598;29;20443;-80
2022/09/08 04:29:22;;;;;;;1.23;0.80;;;;;;;;;;4954936;29;20450;-83
2022/09/08 04:31:50;;;;;;;3.23;1.00;;;;;;;;;;4954110;29;20511;-83
2022/09/08 04:34:17;;;;;;;2.50;1.00;;;;;;;;;;4955014;29;20514;-82
2022/09/08 04:36:44;;;;;;;5.20;1.07;;;;;;;;;;4955027;29;20451;-80
2022/09/08 04:39:16;;;;;;;2.40;0.90;;;15.80;99.90;;;;;;4954896;28;20471;-83
2022/09/08 04:41:43;;;;;;;0.80;0.80;;;;;;;;;;4954980;29;20549;-83
2022/09/08 04:44:10;;;;;;;2.10;1.10;;;;;;;;;;4954778;29;20467;-84
2022/09/08 04:46:37;;;;;;;2.97;1.67;;;;;;;;;;4956046;28;20950;-86
2022/09/08 04:49:05;;;;;;;0.97;0.90;;;;;;;;;;4954945;29;20455;-83
2022/09/08 04:51:32;;;;;;;1.23;1.13;;;;;;;;;;4954816;29;20851;-84
2022/09/08 04:54:01;;;;;;;1.80;1.30;;;15.80;99.90;;;;;;4954738;29;20874;-83
2022/09/08 04:56:30;;;;;;;2.67;1.17;;;15.80;99.90;;;;;;4956331;28;20451;-83
2022/09/08 04:58:57;;;;;;;1.30;1.13;;;;;;;;;;4958677;29;20478;-80
2022/09/08 05:01:25;;;;;;;0.80;0.80;;;15.70;99.90;;;;;;4957791;29;20484;-83
2022/09/08 05:03:54;;;;;;;2.87;0.93;;;15.70;99.90;;;;;;4958311;29;20486;-82
2022/09/08 05:06:22;;;;;;;2.60;1.10;;;15.70;99.90;;;;;;4958401;29;20542;-85
2022/09/08 05:08:51;;;;;;;1.40;1.00;;;15.70;99.90;;;;;;4958391;29;20447;-83
2022/09/08 05:11:18;;;;;;;3.17;1.10;;;;;;;;;;4958198;29;20498;-84
2022/09/08 05:13:47;;;;;;;1.67;1.00;;;15.70;99.90;;;;;;4958250;29;20490;-85
2022/09/08 05:16:15;;;;;;;1.30;1.17;;;15.70;99.90;;;;;;4956996;29;20454;-82
2022/09/08 05:18:42;;;;;;;1.00;0.90;;;;;;;;;;4958479;29;20456;-82
2022/09/08 05:21:10;;;;;;;1.93;1.40;;;15.70;99.90;;;;;;4959307;28;20469;-80
2022/09/08 05:23:37;;;;;;;0.50;0.50;;;;;;;;;;4958237;29;20548;-88
2022/09/08 05:26:06;;;;;;;1.40;1.07;;;15.60;99.90;;;;;;4958071;29;20451;-82
2022/09/08 05:28:35;;;;;;;1.73;1.23;;;15.70;99.90;;;;;;4958158;29;20465;-80
2022/09/08 05:31:05;;;;;;;2.90;1.43;;;15.60;99.90;;;;;;4956979;29;20463;-84
2022/09/08 05:33:32;;;;;;;1.10;1.00;;;;;;;;;;4957681;29;20460;-82
2022/09/08 05:35:59;;;;;;;1.83;0.90;;;;;;;;;;4957892;29;20462;-85
2022/09/08 05:38:27;;;;;;;3.47;2.23;;;;;;;;;;4957622;28;20973;-83
2022/09/08 05:40:54;;;;;;;2.10;1.20;;;;;;;;;;4957753;29;20454;-80
2022/09/08 05:43:21;;;;;;;3.90;1.33;;;;;;;;;;4957740;29;20462;-83
2022/09/08 05:45:49;;;;;;;2.80;1.00;;;15.60;99.90;;;;;;4956525;29;20459;-79
2022/09/08 05:48:17;;;;;;;2.20;1.00;;;15.60;99.90;;;;;;4957601;29;20461;-80
2022/09/08 05:50:45;;;;;;;2.80;1.30;;;15.60;99.90;;;;;;4957528;29;20466;-84
2022/09/08 05:53:14;;;;;;;1.03;0.93;;;15.60;99.90;;;;;;4957458;29;20455;-82
2022/09/08 05:55:41;;;;;;;1.57;1.00;;;;;;;;;;4957398;29;20517;-82
2022/09/08 05:58:10;;;;;;;2.83;0.80;;;;;;;;;;4957570;29;20455;-84
2022/09/08 06:00:38;;;;;;;0.83;0.70;;;;;;;;;;4956301;29;20463;-84
2022/09/08 06:03:05;;;;;;;1.20;0.90;;;;;;;;;;4957434;28;20486;-89
2022/09/08 06:05:35;;;;;;;2.93;1.60;;;15.50;99.90;;;;;;4957216;29;20462;-81
2022/09/08 06:08:02;;;;;;;1.43;1.13;;;;;;;;;;4956548;28;20451;-82
2022/09/08 06:10:30;;;;;;;1.00;0.90;;;;;;;;;;4957282;29;20455;-84
2022/09/08 06:12:57;;;;;;;2.47;0.90;;;;;;;;;;4957280;29;20546;-83
2022/09/08 06:15:24;;;;;;;5.60;1.13;;;;;;;;;;4956067;29;20510;-80
2022/09/08 06:17:51;;;;;;;1.47;0.83;;;;;;;;;;4957190;29;20447;-80
2022/09/08 06:20:18;;;;;;;1.53;0.83;;;;;;;;;;4957270;29;20811;-85
2022/09/08 06:22:46;;;;;;;2.63;1.07;;;15.30;99.90;;;;;;4955826;29;20463;-85
2022/09/08 06:25:13;;;;;;;1.00;0.67;;;;;;;;;;4949718;29;20455;-85
2022/09/08 06:27:47;;;;;;;1.50;1.20;;;15.30;99.90;;;;;;4954121;29;20934;-81
2022/09/08 06:30:16;;;;;;;5.20;1.00;;;15.20;99.90;;;;;;4952061;29;20455;-82
2022/09/08 06:32:47;;;;;;;0.97;0.80;;;15.30;99.90;;;;;;4957188;29;20459;-81
2022/09/08 06:35:18;;;;;;;2.73;0.60;;;15.10;99.90;;;;;;4957116;29;21014;-78
2022/09/08 06:37:49;;;;;;;1.87;0.93;;;15.10;99.90;;;;;;4956736;29;20447;-80
2022/09/08 06:40:22;;;;;;;1.70;0.93;;;15.20;99.90;;;;;;4956632;28;20471;-82
2022/09/08 06:42:56;;;;;;;2.30;1.00;;;15.10;99.90;;;;;;4958095;29;20459;-81
2022/09/08 06:45:27;;;;;;;1.47;0.87;;;;;;;;;;4955918;29;20557;-79
2022/09/08 06:47:59;;;;;;;1.67;0.70;;;;;;;;;;4961043;29;20534;-76
2022/09/08 06:50:28;;;;;;;1.07;0.80;;;15.10;99.90;;;;;;4960934;29;20462;-74
2022/09/08 06:53:01;;;;;;;0.90;0.80;;;15.20;99.90;;;;;;4939570;29;20505;-80
2022/09/08 06:55:36;;;;;;;0.80;0.53;;;15.10;99.90;;;;;;4970036;29;20860;-81
2022/09/08 06:58:18;;;;;;;2.10;0.90;;;15.10;99.90;;;;;;4958415;29;20462;-80
2022/09/08 07:00:50;;;;;;;1.33;0.70;;;15.00;99.90;;;;;;4955050;29;20458;-79
2022/09/08 07:03:44;;;;;;;0.70;0.63;;;15.00;99.90;;;;;;4956076;29;20978;-80
2022/09/08 07:06:13;;;;;;;0.90;0.70;;;;;;;;;;4956163;29;20551;-79
2022/09/08 07:09:12;;;;;;;3.17;0.70;;;15.10;99.90;;;;;;4956231;29;20495;-79
2022/09/08 07:11:49;;;;;;;0.83;0.77;;;15.10;99.90;;;;;;4952824;29;20459;-80
2022/09/08 07:14:40;;;;;;;1.73;0.60;;;15.10;99.90;;;;;;4955795;29;20446;-79
2022/09/08 07:17:14;;;;;;;5.20;1.70;;;15.20;99.90;;;;;;4954765;29;20462;-78
2022/09/08 07:19:48;;;;;;;1.40;0.90;;;15.20;99.90;;;;;;4955978;28;20457;-81
2022/09/08 07:22:24;;;;;;;0.60;0.60;;;15.20;99.90;;;;;;4956027;29;20502;-80
2022/09/08 07:24:54;;;;;;;0.80;0.80;;;15.40;99.90;;;;;;4955668;29;20455;-79
2022/09/08 07:27:22;;;;;;;1.00;0.60;;;15.50;99.90;;;;;;4955623;29;20462;-79
2022/09/08 07:29:52;;;;;;;2.67;0.80;;;15.70;99.90;;;;;;4951716;29;20462;-80
2022/09/08 07:32:24;;;;;;;1.13;0.90;;;15.80;99.90;;;;;;4906883;29;20474;-80
2022/09/08 07:34:56;;;;;;;2.10;0.80;;;15.80;99.90;;;;;;4951775;29;20530;-80
2022/09/08 07:37:26;;;;;;;4.90;1.03;;;15.90;99.90;;;;;;4955658;29;20462;-82
2022/09/08 07:40:00;;;;;;;2.50;0.80;;;16.20;99.90;;;;;;4955579;28;20510;-82
2022/09/08 07:42:29;;;;;;;2.23;0.97;;;16.80;99.90;;;;;;4955660;29;20455;-81
2022/09/08 07:44:59;;;;;;;0.80;0.70;;;17.10;99.90;;;;;;4954324;29;20462;-84
2022/09/08 07:47:39;;;;;;;0.70;0.47;;;17.30;99.90;;;;;;4955633;29;20815;-81
2022/09/08 07:50:15;;;;;;;3.27;1.20;;;17.10;99.90;;;;;;4955522;29;20810;-81
2022/09/08 07:52:51;;;;;;;1.00;0.83;;;17.00;99.90;;;;;;4955412;29;20446;-80
2022/09/08 07:55:27;;;;;;;1.47;0.67;;;16.90;99.90;;;;;;4952636;29;20494;-82
2022/09/08 07:58:04;;;;;;;2.43;0.90;;;17.10;99.90;;;;;;4955327;29;20510;-86
2022/09/08 08:00:43;;;;;;;2.40;1.00;;;17.10;99.90;;;;;;4954080;29;20533;-80
2022/09/08 08:03:28;;;;;;;1.23;0.80;;;17.30;99.90;;;;;;4955197;29;20482;-80
2022/09/08 08:06:02;;;;;;;2.73;0.80;;;17.80;99.90;;;;;;4956636;29;20947;-80
2022/09/08 08:08:39;;;;;;;0.53;0.47;;;18.30;99.90;;;;;;4955139;29;20459;-81
2022/09/08 08:11:12;;;;;;;0.80;0.40;;;18.70;99.90;;;;;;4955149;29;20454;-88
2022/09/08 08:13:57;;;;;;;3.50;0.70;;;18.80;99.90;;;;;;4955197;29;20459;-82
2022/09/08 08:16:36;;;;;;;0.67;0.50;;;19.10;99.90;;;;;;4953768;29;20498;-81
2022/09/08 08:19:15;;;;;;;1.70;0.93;;;19.90;99.90;;;;;;4955020;29;20465;-81
2022/09/08 08:21:49;;;;;;;0.70;0.70;;;19.90;99.90;;;;;;4953145;29;20837;-81
2022/09/08 08:24:30;;;;;;;1.87;0.60;;;19.70;99.90;;;;;;4955053;29;20824;-81
2022/09/08 08:27:03;;;;;;;1.60;0.90;;;20.20;99.90;;;;;;4954917;29;20454;-81
2022/09/08 08:30:11;;;;;;;0.70;0.60;;;20.50;99.90;;;;;;4954939;29;20451;-82
2022/09/08 08:32:41;;;;;;;0.60;0.60;;;20.10;99.90;;;;;;4949845;29;20546;-80
2022/09/08 08:35:16;;;;;;;1.57;0.90;;;20.40;99.90;;;;;;4954745;29;20495;-80
2022/09/08 08:37:45;;;;;;;2.50;0.83;;;20.60;99.90;;;;;;4954589;28;20470;-80
2022/09/08 08:40:29;;;;;;;1.20;0.80;;;20.50;99.90;;;;;;4954812;29;20451;-80
2022/09/08 08:43:07;;;;;;;2.73;0.70;;;21.60;99.90;;;;;;4954761;29;20961;-81
2022/09/08 08:45:46;;;;;;;0.83;0.50;;;21.40;99.90;;;;;;4953478;29;20462;-80
2022/09/08 08:48:27;;;;;;;1.77;0.60;;;21.00;99.90;;;;;;4954785;29;20454;-80
2022/09/08 08:51:12;;;;;;;0.93;0.50;;;18.50;99.90;;;;;;4954718;29;20508;-82
2022/09/08 08:54:04;;;;;;;0.90;0.80;;;20.10;99.90;;;;;;4955522;29;20469;-84
2022/09/08 08:56:38;;;;;;;0.90;0.80;;;19.90;99.90;;;;;;4954782;29;20913;-82
2022/09/08 08:59:40;;;;;;;1.00;0.60;;;19.90;99.90;;;;;;4951481;29;20454;-80
2022/09/08 09:02:20;;;;;;;3.87;0.70;;;19.20;99.90;;;;;;4937221;29;20455;-81
2022/09/08 09:05:14;;;;;;;1.80;0.87;;;19.00;99.90;;;;;;4954546;29;21015;-82
2022/09/08 09:08:08;;;;;;;0.67;0.53;;;19.00;99.90;;;;;;4954873;29;20454;-82
2022/09/08 09:10:49;;;;;;;3.53;0.97;;;19.50;99.90;;;;;;4905998;29;20926;-81
2022/09/08 09:13:32;;;;;;;2.40;0.70;;;20.90;99.90;;;;;;4955992;29;20874;-81
2022/09/08 09:16:24;;;;;;;2.97;1.03;;;20.70;99.90;;;;;;4953574;29;20506;-80
2022/09/08 09:19:21;;;;;;;0.90;0.70;;;19.70;99.90;;;;;;4917782;29;20831;-80
2022/09/08 09:21:54;;;;;;;0.80;0.60;;;19.50;99.90;;;;;;4955392;29;20458;-81
2022/09/08 09:24:37;;;;;;;0.97;0.60;;;19.40;99.90;;;;;;4954409;29;20451;-85
2022/09/08 09:27:14;;;;;;;2.30;0.87;;;18.90;99.90;;;;;;4956584;29;20451;-80
2022/09/08 09:29:42;;;;;;;1.20;0.70;;;;;;;;;;4956265;29;20455;-80
2022/09/08 09:32:40;;;;;;;1.20;0.60;;;18.70;99.90;;;;;;4953643;29;20459;-80
2022/09/08 09:35:37;;;;;;;2.70;0.80;;;18.70;99.90;;;;;;4954353;29;20501;-82
2022/09/08 09:38:33;;;;;;;1.80;0.83;;;19.00;99.90;;;;;;4954334;28;20490;-81
2022/09/08 09:41:32;;;;;;;1.17;0.70;;;19.20;99.90;;;;;;4951344;29;20789;-81
2022/09/08 09:44:21;;;;;;;1.23;0.90;;;19.10;99.90;;;;;;4956457;28;20466;-82
2022/09/08 09:47:21;;;;;;;1.67;0.80;;;19.00;99.90;;;;;;4956902;29;20454;-82
2022/09/08 09:50:32;;;;;;;1.37;0.60;;;19.00;99.90;;;;;;4957897;29;20783;-81
2022/09/08 09:53:11;;;;;;;1.87;0.80;;;20.20;99.90;;;;;;4957660;29;20451;-80
2022/09/08 09:55:58;;;;;;;2.20;0.80;;;21.00;99.90;;;;;;4957748;29;20505;-81
2022/09/08 09:58:47;;;;;;;0.90;0.60;;;20.60;99.90;;;;;;4957376;29;20628;-81
2022/09/08 10:01:38;;;;;;;1.80;0.87;;;20.00;99.90;;;;;;4951063;29;20457;-81
2022/09/08 10:04:40;;;;;;;1.10;0.80;;;19.80;99.90;;;;;;4957735;29;20490;-79
2022/09/08 10:07:22;;;;;;;1.10;0.70;;;20.00;99.90;;;;;;4944725;29;20455;-80
2022/09/08 10:10:27;;;;;;;2.50;1.03;;;20.50;99.90;;;;;;4957668;29;20459;-81
2022/09/08 10:13:28;;;;;;;2.20;0.80;;;21.20;97.50;;;;;;4957488;29;20455;-81
2022/09/08 10:16:33;;;;;;;0.93;0.70;;;20.70;96.80;;;;;;4957249;29;20497;-80
2022/09/08 10:19:33;;;;;;;1.03;0.83;;;20.00;98.20;;;;;;4955819;29;20861;-81
2022/09/08 10:22:27;;;;;;;1.33;0.80;;;19.70;98.90;;;;;;4957406;29;20462;-79
2022/09/08 10:25:27;;;;;;;2.33;0.70;;;19.60;99.90;;;;;;4956864;29;20451;-84
2022/09/08 10:28:26;;;;;;;2.10;0.80;;;19.50;99.90;;;;;;4924671;29;20452;-81
2022/09/08 10:31:17;;;;;;;1.97;1.10;;;19.30;99.90;;;;;;4955614;29;20525;-82
2022/09/08 10:34:17;;;;;;;1.70;0.83;;;19.40;99.90;;;;;;4956868;29;20451;-81
2022/09/08 10:36:58;;;;;;;1.20;0.93;;;19.80;99.90;;;;;;4955595;28;20498;-81
2022/09/08 10:39:40;;;;;;;1.70;1.07;;;19.60;99.90;;;;;;4956584;29;20931;-82
2022/09/08 10:42:44;;;;;;;1.07;0.70;;;19.70;99.90;;;;;;4956561;29;20462;-81
2022/09/08 10:45:30;;;;;;;0.80;0.50;;;19.30;99.90;;;;;;4955235;29;20473;-82
2022/09/08 10:48:30;;;;;;;1.83;0.70;;;19.30;99.90;;;;;;4956551;29;20470;-83
2022/09/08 10:51:22;;;;;;;1.27;0.70;;;19.40;99.90;;;;;;4924486;29;20454;-83
2022/09/08 10:54:09;;;;;;;2.93;1.07;;;19.30;99.90;;;;;;4956237;28;20468;-82
2022/09/08 10:56:39;;;;;;;1.73;0.80;;;19.20;99.30;;;;;;4956307;29;20510;-81
2022/09/08 10:59:53;;;;;;;2.30;0.80;;;19.30;99.90;;;;;;4956293;29;20458;-81
2022/09/08 11:02:31;;;;;;;0.67;0.60;;;19.50;99.10;;;;;;4956053;29;20815;-80
2022/09/08 11:05:24;;;;;;;1.13;0.80;;;19.50;99.50;;;;;;4956202;29;20479;-79
2022/09/08 11:08:19;;;;;;;1.57;0.70;;;19.60;99.90;;;;;;4955983;29;20440;-81
2022/09/08 11:11:04;;;;;;;2.40;0.90;;;19.70;97.30;;;;;;4955834;29;20459;-81
2022/09/08 11:13:33;;;;;;;1.10;0.93;;;;;;;;;;4955765;29;20806;-81
2022/09/08 11:16:22;;;;;;;1.23;0.90;;;20.20;95.30;;;;;;4954361;29;20494;-80
2022/09/08 11:19:06;;;;;;;2.07;1.00;;;20.10;96.40;;;;;;4955610;29;20463;-81
2022/09/08 11:21:40;;;;;;;1.10;0.70;;;21.00;94.70;;;;;;4955707;29;20463;-79
2022/09/08 11:24:20;;;;;;;1.53;0.83;;;21.40;92.30;;;;;;4953041;29;20451;-83
2022/09/08 11:26:56;;;;;;;0.80;0.67;;;22.10;90.40;;;;;;4955246;29;20450;-81
2022/09/08 11:29:30;;;;;;;2.07;0.80;;;21.90;87.40;;;;;;4955426;29;20454;-81
2022/09/08 11:32:04;;;;;;;0.90;0.60;;;21.30;90.40;;;;;;4947468;29;20833;-81
2022/09/08 11:34:44;;;;;;;1.47;0.70;;;21.20;92.30;;;;;;4955348;29;20451;-81
2022/09/08 11:37:36;;;;;;;1.13;0.60;;;20.70;91.00;;;;;;4955184;28;20503;-79
2022/09/08 11:40:26;;;;;;;2.30;0.97;;;20.70;91.30;;;;;;4955565;29;20811;-81
2022/09/08 11:43:28;;;;;;;1.87;0.70;;;20.90;91.00;;;;;;4955025;29;20451;-84
2022/09/08 11:46:14;;;;;;;1.17;0.80;;;21.10;91.10;;;;;;4941868;29;20456;-78
2022/09/08 11:49:11;;;;;;;2.20;0.60;;;20.70;91.30;;;;;;4938501;29;20456;-85
2022/09/08 11:51:58;;;;;;;1.03;0.63;;;20.60;92.40;;;;;;4950913;29;20493;-80
2022/09/08 11:55:02;;;;;;;1.33;0.80;;;20.30;93.00;;;;;;4934514;29;20460;-86
2022/09/08 11:57:53;;;;;;;1.70;0.70;;;20.10;94.10;;;;;;4935854;29;20495;-86
2022/09/08 12:00:47;;;;;;;1.33;0.73;;;20.00;94.60;;;;;;4934995;29;20455;-82
2022/09/08 12:03:32;;;;;;;2.10;0.77;;;19.90;94.30;;;;;;4933905;29;20507;-83
2022/09/08 12:06:33;;;;;;;1.47;0.63;;;19.90;94.10;;;;;;4935433;29;20460;-83
2022/09/08 12:09:21;;;;;;;0.90;0.70;;;20.00;94.70;;;;;;4936140;29;20467;-86
2022/09/08 12:12:09;;;;;;;2.10;0.70;;;19.90;96.90;;;;;;4939444;29;21025;-84
2022/09/08 12:14:47;;;;;;;1.50;0.57;;;19.60;99.90;;;;;;4886771;29;20473;-82
2022/09/08 12:17:23;;;;;;;0.83;0.70;;;19.20;99.90;;;;;;4892802;29;21031;-85
2022/09/08 12:20:01;;;;;;;0.90;0.77;;;19.10;99.90;;;;;;4893971;29;20470;-79
2022/09/08 12:22:52;;;;;;;1.13;0.67;;;19.00;99.90;;;;;;4895966;29;20863;-82
2022/09/08 12:25:58;;;;;;;1.07;0.80;;;19.00;99.90;;;;;;4895911;29;20480;-82
2022/09/08 12:28:47;;;;;;;2.20;1.07;;;18.80;99.90;;;;;;4895646;29;20464;-90
2022/09/08 12:31:28;;;;;;;1.27;0.90;;;19.30;99.90;;;;;;4888819;29;20544;-85
2022/09/08 12:34:36;;;;;;;1.83;0.83;;;20.30;99.90;;;;;;4955015;29;20482;-84
2022/09/08 12:37:13;;;;;;;1.53;0.87;;;20.60;99.90;;;;;;4921469;29;20513;-86
2022/09/08 12:40:09;;;;;;;2.10;1.00;;;20.80;99.90;;;;;;4954732;29;21002;-83
2022/09/08 12:42:54;;;;;;;1.67;0.83;;;21.20;97.90;;;;;;4954778;29;20447;-81
2022/09/08 12:45:29;;;;;;;0.90;0.50;;;21.50;96.70;;;;;;4953566;29;20458;-82
2022/09/08 12:48:06;;;;;;;1.77;0.90;;;21.80;93.60;;;;;;4951625;29;20447;-82
2022/09/08 12:50:47;;;;;;;1.27;0.57;;;21.50;90.40;;;;;;4952357;29;20454;-85
2022/09/08 12:53:36;;;;;;;2.13;0.70;;;20.80;91.90;;;;;;4954706;29;20455;-82
2022/09/08 12:56:08;;;;;;;3.57;0.63;;;20.60;93.40;;;;;;4945454;29;20482;-81
2022/09/08 12:58:44;;;;;;;1.80;0.83;;;21.90;92.40;;;;;;4954475;29;20509;-83
2022/09/08 13:01:18;;;;;;;3.50;0.60;;;22.20;86.10;;;;;;4953479;29;20454;-86
2022/09/08 13:03:45;;;;;;;3.30;1.03;;;;;;;;;;4954501;29;20486;-86
2022/09/08 13:06:54;;;;;;;1.40;0.60;;;21.80;89.20;;;;;;4949972;29;20478;-82
2022/09/08 13:09:25;;;;;;;1.10;0.70;;;21.80;85.60;;;;;;4920117;29;20467;-83
2022/09/08 13:12:41;;;;;;;0.70;0.60;;;21.50;88.60;;;;;;4954546;29;20460;-82
2022/09/08 13:15:28;;;;;;;0.70;0.60;;;21.90;89.60;;;;;;4953139;29;20471;-82
2022/09/08 13:17:59;;;;;;;3.50;1.10;;;;;;;;;;4948936;28;20496;-81
2022/09/08 13:20:40;;;;;;;0.97;0.70;;;21.80;88.60;;;;;;4939005;29;20463;-86
2022/09/08 13:23:29;;;;;;;0.80;0.60;;;21.70;88.10;;;;;;4938899;29;20487;-81
2022/09/08 13:26:08;;;;;;;1.20;0.77;;;21.50;89.60;;;;;;4938822;29;20452;-79
2022/09/08 13:28:49;;;;;;;1.87;0.73;;;21.60;91.00;;;;;;4938730;29;20809;-84
2022/09/08 13:31:28;;;;;;;3.37;0.70;;;22.10;88.00;;;;;;4937697;29;20459;-79
2022/09/08 13:34:10;;;;;;;1.07;0.70;;;22.20;88.30;;;;;;4938656;29;20935;-81
2022/09/08 13:36:43;;;;;;;1.53;0.70;;;;;;;;;;4938648;29;20506;-84
2022/09/08 13:39:25;;;;;;;1.13;0.70;;;22.50;96.90;;;;;;4938639;29;20459;-83
2022/09/08 13:42:11;;;;;;;0.80;0.60;;;22.70;94.00;;;;;;4938689;29;20466;-82
2022/09/08 13:44:53;;;;;;;1.13;0.60;;;22.50;87.50;;;;;;4938499;29;20459;-80
2022/09/08 13:47:44;;;;;;;0.97;0.50;;;23.00;85.70;;;;;;4938489;29;20447;-80
2022/09/08 13:50:26;;;;;;;5.43;0.77;;;23.50;92.70;;;;;;4938468;29;20460;-82
2022/09/08 13:53:15;;;;;;;1.47;0.60;;;23.30;94.20;;;;;;4938368;29;20452;-82
2022/09/08 13:55:55;;;;;;;1.17;0.83;;;22.70;95.40;;;;;;4938350;29;20452;-87
2022/09/08 13:58:41;;;;;;;1.80;1.20;;;22.80;98.80;;;;;;4938306;29;20952;-80
2022/09/08 14:01:42;;;;;;;1.47;0.90;;;23.10;96.70;;;;;;4936945;29;20488;-80
2022/09/08 14:04:24;;;;;;;1.97;1.37;;;22.60;96.60;;;;;;4938008;29;20487;-79
2022/09/08 14:06:59;;;;;;;2.50;1.20;;;23.10;92.90;;;;;;4938030;29;20563;-79
2022/09/08 14:09:28;;;;;;;1.10;0.80;;;23.10;91.60;;;;;;4937998;29;20454;-80
2022/09/08 14:12:12;;;;;;;1.03;0.60;;;22.90;91.10;;;;;;4938157;29;20460;-84
2022/09/08 14:15:10;;;;;;;1.07;0.50;;;22.40;92.10;;;;;;4938070;29;20816;-82